createdAt,value
2019-02-14T00:00:09.798Z,2.54
2019-02-14T00:01:09.797Z,2.52
2019-02-14T00:02:11.211Z,2.41
2019-02-14T00:03:12.619Z,2.47
2019-02-14T00:04:13.308Z,2.44
2019-02-14T00:05:18.002Z,2.36
2019-02-14T00:06:18.744Z,2.32
2019-02-14T00:07:19.426Z,2.28
2019-02-14T00:08:20.260Z,2.1
2019-02-14T00:09:20.669Z,2.22
2019-02-14T00:10:21.635Z,2.16
2019-02-14T00:11:22.039Z,2.16
2019-02-14T00:12:22.442Z,2.1
2019-02-14T00:13:23.571Z,2.21
2019-02-14T00:14:24.534Z,2.18
2019-02-14T00:15:25.979Z,2.23
2019-02-14T00:16:26.940Z,2.33
2019-02-14T00:17:27.070Z,2.23
2019-02-14T00:18:27.623Z,2.34
2019-02-14T00:19:29.310Z,2.34
2019-02-14T00:20:29.841Z,2.32
2019-02-14T00:21:31.529Z,2.37
2019-02-14T00:22:31.934Z,2.36
2019-02-14T00:23:32.658Z,2.39
2019-02-14T00:24:33.935Z,2.46
2019-02-14T00:25:34.340Z,2.41
2019-02-14T00:26:35.023Z,2.37
2019-02-14T00:27:35.438Z,2.37
2019-02-14T00:28:36.832Z,2.4
2019-02-14T00:29:37.517Z,2.32
2019-02-14T00:30:38.758Z,2.33
2019-02-14T00:31:39.724Z,2.36
2019-02-14T00:32:41.242Z,2.44
2019-02-14T00:33:41.795Z,2.46
2019-02-14T00:34:42.765Z,2.52
2019-02-14T00:35:43.451Z,2.51
2019-02-14T00:36:44.577Z,2.57
2019-02-14T00:37:45.260Z,2.55
2019-02-14T00:38:46.351Z,2.68
2019-02-14T00:39:46.482Z,2.65
2019-02-14T00:40:47.616Z,2.69
2019-02-14T00:41:48.580Z,2.68
2019-02-14T00:42:49.280Z,2.69
2019-02-14T00:43:50.797Z,2.69
2019-02-14T00:44:51.210Z,2.68
2019-02-14T00:45:51.618Z,2.69
2019-02-14T00:46:52.036Z,2.73
2019-02-14T00:47:53.444Z,2.68
2019-02-14T00:48:54.622Z,2.57
2019-02-14T00:49:55.026Z,2.54
2019-02-14T00:50:56.470Z,2.46
2019-02-14T00:51:57.594Z,2.41
2019-02-14T00:52:59.006Z,2.43
2019-02-14T00:53:59.693Z,2.36
2019-02-14T00:55:00.157Z,2.4
2019-02-14T00:56:00.391Z,2.37
2019-02-14T00:57:01.360Z,2.26
2019-02-14T00:58:01.765Z,2.26
2019-02-14T00:59:02.895Z,2.22
2019-02-14T01:00:02.859Z,2.25
2019-02-14T01:01:03.877Z,2.22
2019-02-14T01:02:04.007Z,2.21
2019-02-14T01:03:04.696Z,2.34
2019-02-14T01:04:05.430Z,2.33
2019-02-14T01:05:05.841Z,2.28
2019-02-14T01:06:07.281Z,2.39
2019-02-14T01:07:07.980Z,2.34
2019-02-14T01:08:08.945Z,2.32
2019-02-14T01:09:10.057Z,2.25
2019-02-14T01:10:11.021Z,2.37
2019-02-14T01:11:11.709Z,2.32
2019-02-14T01:12:12.119Z,2.33
2019-02-14T01:13:12.524Z,2.25
2019-02-14T01:14:13.208Z,2.26
2019-02-14T01:15:14.167Z,2.22
2019-02-14T01:16:14.574Z,2.36
2019-02-14T01:17:14.980Z,2.21
2019-02-14T01:18:15.453Z,2.12
2019-02-14T01:19:16.482Z,2.16
2019-02-14T01:20:17.174Z,2.08
2019-02-14T01:21:17.580Z,2.07
2019-02-14T01:22:18.545Z,1.98
2019-02-14T01:23:19.948Z,2.05
2019-02-14T01:24:20.631Z,2
2019-02-14T01:25:20.797Z,1.92
2019-02-14T01:26:21.208Z,1.86
2019-02-14T01:27:22.188Z,1.92
2019-02-14T01:28:23.595Z,1.81
2019-02-14T01:29:23.729Z,1.82
2019-02-14T01:30:24.690Z,1.78
2019-02-14T01:31:25.380Z,1.76
2019-02-14T01:32:26.064Z,1.75
2019-02-14T01:33:27.477Z,1.81
2019-02-14T01:34:27.911Z,1.85
2019-02-14T01:35:28.613Z,1.85
2019-02-14T01:36:28.849Z,1.88
2019-02-14T01:37:29.812Z,1.88
2019-02-14T01:38:30.942Z,1.95
2019-02-14T01:39:31.479Z,1.97
2019-02-14T01:40:32.720Z,2.01
2019-02-14T01:41:33.680Z,2.1
2019-02-14T01:42:34.367Z,2.16
2019-02-14T01:43:34.773Z,2.08
2019-02-14T01:44:35.461Z,2.16
2019-02-14T01:45:35.959Z,2.1
2019-02-14T01:46:36.645Z,2.1
2019-02-14T01:47:37.328Z,2.1
2019-02-14T01:48:38.735Z,2.19
2019-02-14T01:49:39.554Z,2.16
2019-02-14T01:50:40.238Z,2.21
2019-02-14T01:51:40.923Z,2.34
2019-02-14T01:52:41.167Z,2.22
2019-02-14T01:53:41.851Z,2.22
2019-02-14T01:54:42.538Z,2.26
2019-02-14T01:55:43.221Z,2.23
2019-02-14T01:56:43.629Z,2.23
2019-02-14T01:57:44.760Z,2.14
2019-02-14T01:58:45.443Z,2.19
2019-02-14T01:59:45.612Z,2.1
2019-02-14T02:00:46.019Z,2.12
2019-02-14T02:01:47.426Z,2.15
2019-02-14T02:02:48.109Z,2.16
2019-02-14T02:03:48.520Z,2.21
2019-02-14T02:04:49.198Z,2.21
2019-02-14T02:05:52.482Z,2.25
2019-02-14T02:06:52.446Z,2.22
2019-02-14T02:07:53.405Z,2.26
2019-02-14T02:08:55.372Z,2.23
2019-02-14T02:09:55.792Z,2.25
2019-02-14T02:10:57.313Z,2.26
2019-02-14T02:11:57.035Z,2.3
2019-02-14T02:12:57.717Z,2.34
2019-02-14T02:13:58.440Z,2.3
2019-02-14T02:14:59.403Z,2.33
2019-02-14T02:16:00.038Z,2.32
2019-02-14T02:17:00.165Z,2.36
2019-02-14T02:18:00.852Z,2.25
2019-02-14T02:19:01.258Z,2.34
2019-02-14T02:20:02.650Z,2.19
2019-02-14T02:21:02.615Z,2.33
2019-02-14T02:22:03.320Z,2.32
2019-02-14T02:23:04.560Z,2.28
2019-02-14T02:24:04.809Z,2.23
2019-02-14T02:25:05.329Z,2.21
2019-02-14T02:26:06.291Z,2.12
2019-02-14T02:27:06.973Z,2.12
2019-02-14T02:28:07.490Z,2.07
2019-02-14T02:29:08.015Z,2
2019-02-14T02:30:09.029Z,2.1
2019-02-14T02:31:09.835Z,2.08
2019-02-14T02:32:10.354Z,1.95
2019-02-14T02:33:10.481Z,2.01
2019-02-14T02:34:11.446Z,1.97
2019-02-14T02:35:12.997Z,1.82
2019-02-14T02:36:13.434Z,1.79
2019-02-14T02:37:14.123Z,1.81
2019-02-14T02:38:15.567Z,1.78
2019-02-14T02:39:16.020Z,1.81
2019-02-14T02:40:17.666Z,1.81
2019-02-14T02:41:18.394Z,1.88
2019-02-14T02:42:18.805Z,1.84
2019-02-14T02:43:19.778Z,1.82
2019-02-14T02:44:20.755Z,1.78
2019-02-14T02:45:22.017Z,1.81
2019-02-14T02:46:22.533Z,1.89
2019-02-14T02:47:23.226Z,1.78
2019-02-14T02:48:24.187Z,1.79
2019-02-14T02:49:24.749Z,1.81
2019-02-14T02:50:25.725Z,1.79
2019-02-14T02:51:25.730Z,1.89
2019-02-14T02:52:27.087Z,1.79
2019-02-14T02:53:26.768Z,1.86
2019-02-14T02:54:27.734Z,1.84
2019-02-14T02:55:28.994Z,1.82
2019-02-14T02:56:29.001Z,1.79
2019-02-14T02:57:29.796Z,1.86
2019-02-14T02:58:30.203Z,1.79
2019-02-14T02:59:31.471Z,1.82
2019-02-14T03:00:32.159Z,1.93
2019-02-14T03:01:32.896Z,1.84
2019-02-14T03:02:32.862Z,1.84
2019-02-14T03:03:34.114Z,1.85
2019-02-14T03:04:35.361Z,1.89
2019-02-14T03:05:36.207Z,1.85
2019-02-14T03:06:36.453Z,1.85
2019-02-14T03:07:36.965Z,1.79
2019-02-14T03:08:36.961Z,1.88
2019-02-14T03:09:38.647Z,1.78
2019-02-14T03:10:39.473Z,1.78
2019-02-14T03:11:39.712Z,1.78
2019-02-14T03:12:40.675Z,1.85
2019-02-14T03:13:42.503Z,1.86
2019-02-14T03:14:42.792Z,1.93
2019-02-14T03:15:43.222Z,1.85
2019-02-14T03:16:44.628Z,1.92
2019-02-14T03:17:46.162Z,1.88
2019-02-14T03:18:46.406Z,1.82
2019-02-14T03:19:46.889Z,1.89
2019-02-14T03:20:47.719Z,1.82
2019-02-14T03:21:48.852Z,1.84
2019-02-14T03:22:50.307Z,1.85
2019-02-14T03:23:50.714Z,1.88
2019-02-14T03:24:51.405Z,1.79
2019-02-14T03:25:52.374Z,1.84
2019-02-14T03:26:53.336Z,1.88
2019-02-14T03:27:54.577Z,1.79
2019-02-14T03:28:54.708Z,1.81
2019-02-14T03:29:55.678Z,1.84
2019-02-14T03:30:56.516Z,1.81
2019-02-14T03:31:58.314Z,1.78
2019-02-14T03:32:58.927Z,1.79
2019-02-14T03:33:59.916Z,1.88
2019-02-14T03:35:00.730Z,1.84
2019-02-14T03:36:01.249Z,1.84
2019-02-14T03:37:01.944Z,1.85
2019-02-14T03:38:02.904Z,1.79
2019-02-14T03:39:03.317Z,1.84
2019-02-14T03:40:04.278Z,1.84
2019-02-14T03:41:05.652Z,1.85
2019-02-14T03:42:05.782Z,1.82
2019-02-14T03:43:06.742Z,1.84
2019-02-14T03:44:07.428Z,1.75
2019-02-14T03:45:07.831Z,1.76
2019-02-14T03:46:08.238Z,1.84
2019-02-14T03:47:09.482Z,1.82
2019-02-14T03:48:10.168Z,1.81
2019-02-14T03:49:10.589Z,1.89
2019-02-14T03:50:12.109Z,1.82
2019-02-14T03:51:12.245Z,1.82
2019-02-14T03:52:13.248Z,1.81
2019-02-14T03:53:13.399Z,1.78
2019-02-14T03:54:14.087Z,1.88
2019-02-14T03:55:15.495Z,1.95
2019-02-14T03:56:16.072Z,2
2019-02-14T03:57:17.036Z,1.98
2019-02-14T03:58:17.274Z,1.97
2019-02-14T03:59:17.960Z,2
2019-02-14T04:00:18.931Z,2.01
2019-02-14T04:01:19.470Z,2
2019-02-14T04:02:19.598Z,1.97
2019-02-14T04:03:20.293Z,1.97
2019-02-14T04:04:21.820Z,1.92
2019-02-14T04:05:21.948Z,2.08
2019-02-14T04:06:29.231Z,2.05
2019-02-14T04:06:34.441Z,2.07
2019-02-14T04:07:34.973Z,2.07
2019-02-14T04:08:35.659Z,2.05
2019-02-14T04:09:36.625Z,1.97
2019-02-14T04:10:37.330Z,1.97
2019-02-14T04:11:37.737Z,1.92
2019-02-14T04:12:38.181Z,1.95
2019-02-14T04:13:38.861Z,1.93
2019-02-14T04:14:39.266Z,1.85
2019-02-14T04:15:39.954Z,1.85
2019-02-14T04:16:40.423Z,1.84
2019-02-14T04:17:40.961Z,1.81
2019-02-14T04:18:41.929Z,1.84
2019-02-14T04:19:42.335Z,1.81
2019-02-14T04:20:44.022Z,1.84
2019-02-14T04:21:44.430Z,1.93
2019-02-14T04:22:44.838Z,1.95
2019-02-14T04:23:45.290Z,1.97
2019-02-14T04:24:45.698Z,1.95
2019-02-14T04:25:46.148Z,1.95
2019-02-14T04:26:46.836Z,2.03
2019-02-14T04:27:47.639Z,2.1
2019-02-14T04:28:48.049Z,2.18
2019-02-14T04:29:49.015Z,2.14
2019-02-14T04:30:49.703Z,2.22
2019-02-14T04:31:50.444Z,2.19
2019-02-14T04:32:50.570Z,2.28
2019-02-14T04:33:51.257Z,2.26
2019-02-14T04:34:52.237Z,2.23
2019-02-14T04:35:53.403Z,2.23
2019-02-14T04:36:56.303Z,2.32
2019-02-14T04:37:55.393Z,2.23
2019-02-14T04:38:56.356Z,2.3
2019-02-14T04:39:56.763Z,2.25
2019-02-14T04:40:57.723Z,2.4
2019-02-14T04:41:57.407Z,2.26
2019-02-14T04:42:57.819Z,2.3
2019-02-14T04:43:58.948Z,2.33
2019-02-14T04:45:00.189Z,2.34
2019-02-14T04:46:01.137Z,2.22
2019-02-14T04:47:01.377Z,2.22
2019-02-14T04:48:02.208Z,2.26
2019-02-14T04:50:03.077Z,2.22
2019-02-14T04:51:04.040Z,2.19
2019-02-14T04:52:04.724Z,2.26
2019-02-14T04:53:05.409Z,2.25
2019-02-14T04:54:06.099Z,2.23
2019-02-14T04:55:06.232Z,2.22
2019-02-14T04:56:07.196Z,2.21
2019-02-14T04:57:07.330Z,2.23
2019-02-14T04:58:07.946Z,2.26
2019-02-14T04:59:08.632Z,2.26
2019-02-14T05:00:09.042Z,2.33
2019-02-14T05:01:09.455Z,2.23
2019-02-14T05:02:09.870Z,2.26
2019-02-14T05:03:11.115Z,2.23
2019-02-14T05:04:12.081Z,2.22
2019-02-14T05:05:12.498Z,2.23
2019-02-14T05:06:13.463Z,2.23
2019-02-14T05:07:14.431Z,2.14
2019-02-14T05:08:15.261Z,2.18
2019-02-14T05:09:16.246Z,2.14
2019-02-14T05:10:16.945Z,2.12
2019-02-14T05:11:17.629Z,2.12
2019-02-14T05:12:18.347Z,2.12
2019-02-14T05:13:18.587Z,2.15
2019-02-14T05:14:19.552Z,2.14
2019-02-14T05:15:19.238Z,2.18
2019-02-14T05:16:20.366Z,2.18
2019-02-14T05:17:21.776Z,2.05
2019-02-14T05:18:22.645Z,2
2019-02-14T05:19:23.333Z,1.92
2019-02-14T05:20:23.741Z,1.98
2019-02-14T05:21:24.431Z,1.97
2019-02-14T05:22:25.561Z,1.89
2019-02-14T05:23:26.828Z,1.97
2019-02-14T05:24:27.241Z,1.93
2019-02-14T05:25:28.369Z,1.97
2019-02-14T05:26:29.064Z,2.01
2019-02-14T05:27:29.753Z,2.15
2019-02-14T05:28:31.152Z,2.07
2019-02-14T05:29:31.575Z,2.18
2019-02-14T05:30:32.547Z,2.22
2019-02-14T05:31:33.232Z,2.19
2019-02-14T05:32:33.917Z,2.32
2019-02-14T05:33:34.330Z,2.33
2019-02-14T05:34:35.738Z,2.34
2019-02-14T05:35:36.876Z,2.4
2019-02-14T05:36:38.712Z,2.44
2019-02-14T05:37:39.399Z,2.44
2019-02-14T05:38:40.525Z,2.44
2019-02-14T05:39:40.486Z,2.44
2019-02-14T05:40:41.176Z,2.5
2019-02-14T05:41:41.872Z,2.46
2019-02-14T05:42:43.283Z,2.4
2019-02-14T05:43:43.973Z,2.36
2019-02-14T05:44:44.657Z,2.43
2019-02-14T05:45:45.066Z,2.51
2019-02-14T05:46:45.473Z,2.39
2019-02-14T05:47:46.194Z,2.41
2019-02-14T05:48:47.594Z,2.4
2019-02-14T05:49:48.281Z,2.39
2019-02-14T05:50:48.695Z,2.28
2019-02-14T05:51:49.382Z,2.18
2019-02-14T05:52:50.628Z,2.25
2019-02-14T05:53:50.758Z,2.18
2019-02-14T05:54:52.176Z,2.14
2019-02-14T05:55:52.318Z,2.1
2019-02-14T05:56:53.283Z,2.15
2019-02-14T05:57:53.695Z,2.15
2019-02-14T05:58:54.826Z,2.1
2019-02-14T05:59:55.512Z,2.12
2019-02-14T06:00:56.492Z,2.12
2019-02-14T06:01:57.457Z,2.19
2019-02-14T06:02:57.429Z,2.1
2019-02-14T06:03:57.838Z,2.18
2019-02-14T06:04:59.248Z,2.15
2019-02-14T06:05:59.792Z,2.07
2019-02-14T06:07:02.525Z,2.05
2019-02-14T06:08:03.490Z,1.97
2019-02-14T06:09:03.461Z,1.89
2019-02-14T06:10:03.869Z,1.84
2019-02-14T06:11:04.558Z,1.81
2019-02-14T06:12:05.257Z,1.78
2019-02-14T06:13:05.221Z,1.76
2019-02-14T06:14:06.632Z,1.68
2019-02-14T06:15:07.884Z,1.71
2019-02-14T06:16:08.019Z,1.67
2019-02-14T06:17:09.598Z,1.67
2019-02-14T06:18:10.050Z,1.64
2019-02-14T06:19:10.589Z,1.56
2019-02-14T06:20:11.562Z,1.6
2019-02-14T06:21:11.982Z,1.6
2019-02-14T06:22:12.973Z,1.56
2019-02-14T06:23:13.381Z,1.46
2019-02-14T06:24:14.069Z,1.48
2019-02-14T06:25:15.143Z,1.58
2019-02-14T06:26:15.838Z,1.56
2019-02-14T06:27:17.247Z,1.49
2019-02-14T06:28:18.490Z,1.52
2019-02-14T06:29:18.863Z,1.57
2019-02-14T06:30:19.282Z,1.53
2019-02-14T06:31:20.693Z,1.61
2019-02-14T06:32:20.837Z,1.66
2019-02-14T06:33:21.825Z,1.71
2019-02-14T06:34:23.079Z,1.76
2019-02-14T06:35:23.768Z,1.7
2019-02-14T06:36:24.738Z,1.82
2019-02-14T06:37:25.158Z,1.78
2019-02-14T06:38:26.129Z,1.82
2019-02-14T06:39:26.666Z,1.86
2019-02-14T06:40:27.394Z,1.93
2019-02-14T06:41:28.089Z,2
2019-02-14T06:42:28.780Z,2.04
2019-02-14T06:43:29.467Z,1.93
2019-02-14T06:44:30.449Z,1.92
2019-02-14T06:45:32.138Z,1.97
2019-02-14T06:46:32.549Z,1.98
2019-02-14T06:47:33.516Z,1.88
2019-02-14T06:48:33.928Z,1.86
2019-02-14T06:49:34.612Z,1.98
2019-02-14T06:50:35.941Z,2.01
2019-02-14T06:51:36.907Z,2.1
2019-02-14T06:52:37.322Z,2.08
2019-02-14T06:53:38.036Z,2.18
2019-02-14T06:54:39.283Z,2.33
2019-02-14T06:55:38.979Z,2.28
2019-02-14T06:56:40.108Z,2.26
2019-02-14T06:57:41.387Z,2.36
2019-02-14T06:58:41.644Z,2.34
2019-02-14T06:59:42.459Z,2.37
2019-02-14T07:00:43.941Z,2.39
2019-02-14T07:01:44.615Z,2.46
2019-02-14T07:02:44.324Z,2.51
2019-02-14T07:03:44.836Z,2.5
2019-02-14T07:04:46.209Z,2.57
2019-02-14T07:05:46.987Z,2.61
2019-02-14T07:06:48.095Z,2.57
2019-02-14T07:07:48.768Z,2.57
2019-02-14T07:08:48.932Z,2.69
2019-02-14T07:09:49.329Z,2.7
2019-02-14T07:10:49.866Z,2.76
2019-02-14T07:11:51.152Z,2.69
2019-02-14T07:12:52.451Z,2.7
2019-02-14T07:13:53.128Z,2.7
2019-02-14T07:14:54.090Z,2.8
2019-02-14T07:15:55.208Z,2.73
2019-02-14T07:16:55.901Z,2.76
2019-02-14T07:17:57.597Z,2.8
2019-02-14T07:18:58.308Z,2.88
2019-02-14T07:19:59.011Z,2.77
2019-02-14T07:20:59.663Z,2.88
2019-02-14T07:22:01.079Z,2.93
2019-02-14T07:23:01.530Z,3
2019-02-14T07:24:03.336Z,3.08
2019-02-14T07:25:03.030Z,3.16
2019-02-14T07:26:03.998Z,3.22
2019-02-14T07:27:04.688Z,3.12
2019-02-14T07:28:06.101Z,3.21
2019-02-14T07:29:06.829Z,3.24
2019-02-14T07:30:07.678Z,3.29
2019-02-14T07:31:08.186Z,3.29
2019-02-14T07:32:08.895Z,3.37
2019-02-14T07:33:09.387Z,3.45
2019-02-14T07:34:09.807Z,3.46
2019-02-14T07:35:10.960Z,3.45
2019-02-14T07:36:11.390Z,3.48
2019-02-14T07:37:12.530Z,3.63
2019-02-14T07:38:13.577Z,3.73
2019-02-14T07:39:14.549Z,3.94
2019-02-14T07:40:14.816Z,4.1
2019-02-14T07:41:15.952Z,4.14
2019-02-14T07:42:16.646Z,4.32
2019-02-14T07:43:17.783Z,4.46
2019-02-14T07:44:18.475Z,4.66
2019-02-14T07:45:19.475Z,4.74
2019-02-14T07:46:23.875Z,4.82
2019-02-14T07:47:25.016Z,4.9
2019-02-14T07:48:26.155Z,5.08
2019-02-14T07:49:27.853Z,5.2
2019-02-14T07:50:28.889Z,5.44
2019-02-14T07:51:29.309Z,5.61
2019-02-14T07:52:29.838Z,5.77
2019-02-14T07:53:30.535Z,5.97
2019-02-14T07:54:30.957Z,5.91
2019-02-14T07:55:31.658Z,6.01
2019-02-14T07:56:32.083Z,5.92
2019-02-14T07:57:32.779Z,6.09
2019-02-14T07:58:33.484Z,6.34
2019-02-14T07:59:34.668Z,6.43
2019-02-14T08:00:36.116Z,6.7
2019-02-14T08:01:37.113Z,6.82
2019-02-14T08:02:37.814Z,6.89
2019-02-14T08:03:39.239Z,7.14
2019-02-14T08:04:39.664Z,7.4
2019-02-14T08:05:41.082Z,7.32
2019-02-14T08:06:42.055Z,7.47
2019-02-14T08:07:42.783Z,7.44
2019-02-14T08:08:42.757Z,7.33
2019-02-14T08:09:43.500Z,7.4
2019-02-14T08:10:43.794Z,7.4
2019-02-14T08:11:44.211Z,7.4
2019-02-14T08:12:45.355Z,7.26
2019-02-14T08:13:47.051Z,7.25
2019-02-14T08:14:47.027Z,7.26
2019-02-14T08:15:47.456Z,7.14
2019-02-14T08:16:47.866Z,7.15
2019-02-14T08:17:49.289Z,7.22
2019-02-14T08:18:49.825Z,7.4
2019-02-14T08:19:49.964Z,7.53
2019-02-14T08:20:50.545Z,7.47
2019-02-14T08:21:51.293Z,7.66
2019-02-14T08:22:51.759Z,7.87
2019-02-14T08:23:52.459Z,7.88
2019-02-14T08:24:53.879Z,7.62
2019-02-14T08:25:54.857Z,7.64
2019-02-14T08:26:54.560Z,7.99
2019-02-14T08:27:55.262Z,8.32
2019-02-14T08:28:56.235Z,8.24
2019-02-14T08:29:57.217Z,8.21
2019-02-14T08:30:57.350Z,8.14
2019-02-14T08:31:57.771Z,8.21
2019-02-14T08:32:58.478Z,8.18
2019-02-14T08:33:59.170Z,8.06
2019-02-14T08:35:00.809Z,8.14
2019-02-14T08:36:00.783Z,8.11
2019-02-14T08:37:01.500Z,8.21
2019-02-14T08:38:02.792Z,8.03
2019-02-14T08:39:06.034Z,7.98
2019-02-14T08:40:04.103Z,7.83
2019-02-14T08:41:05.526Z,7.62
2019-02-14T08:42:05.946Z,7.67
2019-02-14T08:43:06.647Z,7.85
2019-02-14T08:44:08.092Z,8.01
2019-02-14T08:45:08.514Z,8.46
2019-02-14T08:46:09.776Z,8.96
2019-02-14T08:47:10.483Z,9.18
2019-02-14T08:48:11.459Z,9.09
2019-02-14T08:49:11.992Z,9.02
2019-02-14T08:50:12.482Z,9.21
2019-02-14T08:51:13.041Z,9.29
2019-02-14T08:52:14.023Z,9.63
2019-02-14T08:53:15.288Z,10.1
2019-02-14T08:54:15.438Z,10.62
2019-02-14T08:55:16.419Z,10.72
2019-02-14T08:56:16.860Z,10.8
2019-02-14T08:57:17.288Z,10.82
2019-02-14T08:58:18.440Z,10.65
2019-02-14T08:59:19.426Z,10.38
2019-02-14T09:00:19.575Z,10.23
2019-02-14T09:01:20.704Z,10.06
2019-02-14T09:02:21.406Z,10.12
2019-02-14T09:03:22.113Z,10.42
2019-02-14T09:04:23.401Z,10.57
2019-02-14T09:05:24.268Z,10.61
2019-02-14T09:06:24.697Z,10.75
2019-02-14T09:07:25.690Z,10.69
2019-02-14T09:08:26.113Z,10.68
2019-02-14T09:09:27.104Z,10.67
2019-02-14T09:10:27.690Z,10.49
2019-02-14T09:11:27.803Z,10.24
2019-02-14T09:12:28.501Z,10.05
2019-02-14T09:13:29.199Z,9.9
2019-02-14T09:14:29.906Z,9.7
2019-02-14T09:15:30.884Z,9.54
2019-02-14T09:16:31.307Z,9.33
2019-02-14T09:17:32.004Z,9.27
2019-02-14T09:18:33.154Z,9.33
2019-02-14T09:19:33.685Z,9.4
2019-02-14T09:20:34.412Z,9.64
2019-02-14T09:21:35.803Z,9.74
2019-02-14T09:22:36.784Z,10.06
2019-02-14T09:23:37.764Z,10.39
2019-02-14T09:24:38.743Z,10.59
2019-02-14T09:25:38.721Z,10.41
2019-02-14T09:26:43.811Z,10.31
2019-02-14T09:26:54.855Z,10.23
2019-02-14T09:27:53.724Z,9.74
2019-02-14T09:28:54.981Z,9.52
2019-02-14T09:29:55.240Z,9.7
2019-02-14T09:30:56.217Z,10.2
2019-02-14T09:31:56.640Z,10.79
2019-02-14T09:32:57.145Z,11.38
2019-02-14T09:33:57.401Z,11.81
2019-02-14T09:34:57.830Z,11.55
2019-02-14T09:35:59.256Z,12.15
2019-02-14T09:36:59.403Z,12.76
2019-02-14T09:38:04.699Z,13.17
2019-02-14T09:39:05.129Z,13.52
2019-02-14T09:40:06.118Z,13.54
2019-02-14T09:41:06.820Z,14.07
2019-02-14T09:42:06.803Z,14.4
2019-02-14T09:43:07.508Z,14.58
2019-02-14T09:44:08.682Z,14.37
2019-02-14T09:45:10.117Z,14.36
2019-02-14T09:46:10.852Z,14.37
2019-02-14T09:47:11.560Z,14.49
2019-02-14T09:48:12.371Z,14.41
2019-02-14T09:49:15.006Z,14.16
2019-02-14T09:50:15.197Z,13.94
2019-02-14T09:51:15.954Z,14.3
2019-02-14T09:52:16.249Z,14.31
2019-02-14T09:53:17.580Z,14.37
2019-02-14T09:54:17.320Z,14.56
2019-02-14T09:55:18.952Z,14.37
2019-02-14T09:56:18.990Z,14.31
2019-02-14T09:57:23.694Z,14.34
2019-02-14T09:57:35.034Z,14.34
2019-02-14T09:57:47.368Z,14.33
2019-02-14T09:57:59.012Z,14.33
2019-02-14T09:58:10.677Z,14.33
2019-02-14T09:58:25.110Z,14.36
2019-02-14T09:58:33.234Z,14.3
2019-02-14T09:59:37.066Z,14.08
2019-02-14T09:59:47.220Z,14.15
2019-02-14T10:00:48.021Z,14.15
2019-02-14T10:01:48.771Z,14.31
2019-02-14T10:02:50.093Z,14.36
2019-02-14T10:03:51.192Z,14.37
2019-02-14T10:04:51.264Z,14.4
2019-02-14T10:05:52.829Z,14.45
2019-02-14T10:06:53.961Z,14.51
2019-02-14T10:07:54.500Z,14.55
2019-02-14T10:08:55.861Z,14.37
2019-02-14T10:09:56.420Z,14.55
2019-02-14T10:10:57.493Z,14.81
2019-02-14T10:11:58.226Z,15.19
2019-02-14T10:12:59.766Z,15.45
2019-02-14T10:14:01.066Z,15.23
2019-02-14T10:15:00.773Z,15.05
2019-02-14T10:16:01.069Z,14.61
2019-02-14T10:17:02.782Z,14.48
2019-02-14T10:18:03.492Z,14.4
2019-02-14T10:19:03.926Z,14.28
2019-02-14T10:20:04.637Z,14.11
2019-02-14T10:21:05.486Z,14.19
2019-02-14T10:22:05.638Z,14.58
2019-02-14T10:23:07.200Z,14.93
2019-02-14T10:24:07.799Z,15.36
2019-02-14T10:25:08.504Z,15.84
2019-02-14T10:26:09.491Z,16.17
2019-02-14T10:27:10.475Z,16.39
2019-02-14T10:28:10.903Z,16.51
2019-02-14T10:29:11.609Z,16.64
2019-02-14T10:30:13.066Z,16.65
2019-02-14T10:31:13.644Z,16.82
2019-02-14T10:32:14.356Z,16.92
2019-02-14T10:33:14.787Z,16.92
2019-02-14T10:34:15.787Z,17.1
2019-02-14T10:35:16.495Z,17.05
2019-02-14T10:36:17.278Z,17.13
2019-02-14T10:37:18.560Z,17.37
2019-02-14T10:38:23.877Z,17.24
2019-02-14T10:39:24.598Z,17.19
2019-02-14T10:40:25.109Z,17.2
2019-02-14T10:41:25.983Z,16.87
2019-02-14T10:42:26.725Z,16.95
2019-02-14T10:43:27.438Z,16.68
2019-02-14T10:44:27.603Z,16.92
2019-02-14T10:45:28.321Z,17.07
2019-02-14T10:46:28.309Z,17.1
2019-02-14T10:47:31.131Z,17.38
2019-02-14T10:48:30.051Z,17.65
2019-02-14T10:49:30.764Z,17.71
2019-02-14T10:50:32.332Z,17.73
2019-02-14T10:51:31.910Z,17.76
2019-02-14T10:52:32.622Z,17.9
2019-02-14T10:53:33.612Z,17.86
2019-02-14T10:54:33.890Z,17.69
2019-02-14T10:55:34.372Z,17.69
2019-02-14T10:56:35.923Z,17.79
2019-02-14T10:57:36.389Z,17.97
2019-02-14T10:58:37.661Z,17.87
2019-02-14T10:59:38.651Z,17.75
2019-02-14T11:00:39.882Z,17.49
2019-02-14T11:01:41.074Z,17.78
2019-02-14T11:02:42.066Z,17.87
2019-02-14T11:03:43.549Z,17.75
2019-02-14T11:04:48.325Z,18.06
2019-02-14T11:05:44.237Z,18.33
2019-02-14T11:06:45.063Z,18.63
2019-02-14T11:07:45.906Z,18.74
2019-02-14T11:08:46.145Z,18.89
2019-02-14T11:09:46.802Z,19
2019-02-14T11:10:47.699Z,18.33
2019-02-14T11:11:48.091Z,17.69
2019-02-14T11:12:49.372Z,17.49
2019-02-14T11:13:50.088Z,17.6
2019-02-14T11:14:51.809Z,17.72
2019-02-14T11:15:52.254Z,17.75
2019-02-14T11:16:52.406Z,17.82
2019-02-14T11:17:53.121Z,17.98
2019-02-14T11:18:54.390Z,17.98
2019-02-14T11:19:54.130Z,18
2019-02-14T11:20:56.607Z,18.15
2019-02-14T11:21:55.750Z,18
2019-02-14T11:22:56.743Z,18.05
2019-02-14T11:23:57.238Z,17.57
2019-02-14T11:25:00.331Z,17.14
2019-02-14T11:25:58.777Z,16.8
2019-02-14T11:26:59.778Z,16.66
2019-02-14T11:28:00.770Z,16.68
2019-02-14T11:29:02.265Z,16.72
2019-02-14T11:30:02.010Z,16.79
2019-02-14T11:31:02.448Z,16.86
2019-02-14T11:32:03.527Z,16.79
2019-02-14T11:33:04.300Z,16.84
2019-02-14T11:34:04.733Z,16.83
2019-02-14T11:35:05.174Z,16.61
2019-02-14T11:36:06.599Z,16.36
2019-02-14T11:37:07.308Z,16.13
2019-02-14T11:38:09.606Z,16.26
2019-02-14T11:39:08.868Z,16.09
2019-02-14T11:40:09.587Z,15.65
2019-02-14T11:41:10.022Z,15.52
2019-02-14T11:42:12.256Z,15.41
2019-02-14T11:43:12.490Z,15.43
2019-02-14T11:44:12.961Z,15.22
2019-02-14T11:45:13.202Z,15.3
2019-02-14T11:46:14.072Z,15.54
2019-02-14T11:47:14.441Z,15.73
2019-02-14T11:48:14.874Z,15.85
2019-02-14T11:49:16.815Z,15.83
2019-02-14T11:50:17.356Z,15.73
2019-02-14T11:51:18.492Z,15.78
2019-02-14T11:52:20.081Z,15.75
2019-02-14T11:53:20.508Z,15.62
2019-02-14T11:54:21.745Z,15.51
2019-02-14T11:55:22.832Z,15.32
2019-02-14T11:56:24.132Z,15.36
2019-02-14T11:57:24.563Z,15.12
2019-02-14T11:58:25.268Z,14.73
2019-02-14T11:59:26.254Z,14.92
2019-02-14T12:00:25.963Z,14.71
2019-02-14T12:01:26.951Z,14.9
2019-02-14T12:02:28.960Z,15.02
2019-02-14T12:03:29.228Z,15.17
2019-02-14T12:04:29.659Z,15.32
2019-02-14T12:05:30.690Z,15.32
2019-02-14T12:06:31.654Z,15.26
2019-02-14T12:07:32.280Z,15.15
2019-02-14T12:08:32.965Z,15.26
2019-02-14T12:09:33.505Z,15.11
2019-02-14T12:10:34.489Z,14.87
2019-02-14T12:11:34.686Z,14.62
2019-02-14T12:12:35.470Z,14.31
2019-02-14T12:13:35.635Z,14.18
2019-02-14T12:14:37.148Z,14.2
2019-02-14T12:15:37.301Z,14.16
2019-02-14T12:16:38.303Z,13.73
2019-02-14T12:17:39.726Z,13.58
2019-02-14T12:18:40.475Z,13.17
2019-02-14T12:19:40.905Z,12.93
2019-02-14T12:20:42.444Z,12.78
2019-02-14T12:21:43.150Z,12.83
2019-02-14T12:22:48.269Z,12.86
2019-02-14T12:23:49.418Z,12.87
2019-02-14T12:24:50.849Z,12.87
2019-02-14T12:25:51.555Z,12.94
2019-02-14T12:26:52.266Z,13.01
2019-02-14T12:27:52.700Z,13.27
2019-02-14T12:28:53.134Z,13.57
2019-02-14T12:29:54.503Z,14.04
2019-02-14T12:30:55.208Z,14.36
2019-02-14T12:31:55.638Z,14.53
2019-02-14T12:32:56.062Z,14.67
2019-02-14T12:33:59.512Z,14.82
2019-02-14T12:34:58.886Z,14.85
2019-02-14T12:35:59.602Z,14.87
2019-02-14T12:37:00.584Z,14.96
2019-02-14T12:38:00.878Z,14.99
2019-02-14T12:39:13.697Z,14.78
2019-02-14T12:40:14.849Z,14.7
2019-02-14T12:41:15.998Z,14.56
2019-02-14T12:42:16.431Z,14.41
2019-02-14T12:43:17.138Z,14.38
2019-02-14T12:44:18.289Z,14.36
2019-02-14T12:45:31.980Z,14.34
2019-02-14T12:46:32.828Z,14.37
2019-02-14T12:47:33.548Z,14.58
2019-02-14T12:48:34.055Z,14.59
2019-02-14T12:49:35.714Z,14.92
2019-02-14T12:50:37.395Z,15.14
2019-02-14T12:51:38.380Z,15.41
2019-02-14T12:52:38.811Z,15.52
2019-02-14T12:53:39.529Z,15.3
2019-02-14T12:54:42.968Z,15.1
2019-02-14T12:55:42.448Z,15.08
2019-02-14T12:56:42.872Z,14.71
2019-02-14T12:57:43.312Z,14.55
2019-02-14T12:58:44.484Z,14.52
2019-02-14T12:59:45.908Z,14.43
2019-02-14T13:00:47.614Z,14.4
2019-02-14T13:01:47.322Z,14.52
2019-02-14T13:02:48.030Z,14.87
2019-02-14T13:03:48.750Z,15.11
2019-02-14T13:04:49.904Z,15.18
2019-02-14T13:05:51.634Z,15.25
2019-02-14T13:06:52.030Z,15.12
2019-02-14T13:07:52.460Z,15.18
2019-02-14T13:08:53.448Z,15.23
2019-02-14T13:09:54.720Z,15.47
2019-02-14T13:10:54.877Z,15.41
2019-02-14T13:11:55.586Z,15.3
2019-02-14T13:12:56.018Z,15.29
2019-02-14T13:13:57.284Z,15.15
2019-02-14T13:14:58.302Z,15.14
2019-02-14T13:15:59.024Z,15.1
2019-02-14T13:16:59.446Z,15.12
2019-02-14T13:18:03.258Z,15.32